Weather observations for the past three days for
Chandler, Chandler Municipal Airport
Imperial (Metric)
Date Time (cdt) Wind (mph) Vis. (mi.) Weather Sky Cond. Temperature (ºF) Relative Humidity Wind Chill (°F) Heat Index (°F) Pressure Precipitation (in)
Air Dwpt 6 hour altimeter (in) sea level (mb) 1 hr 3 hr 6 hr
Max. Min.
06 12:15 NE 17 G 22 7.00 Partly Cloudy SCT040 60.1 40.3 48% 30.05 0.0
06 11:35 NE 10 7.00 Partly Cloudy SCT038 57.4 39.6 52% 30.07 0.0
06 11:10 NE 12 10.00 Fair CLR 56.8 40.3 54% 30.07 0.0
06 10:50 NE 14 G 20 10.00 Fair CLR 57 40.3 54% 30.07 0.0
06 10:30 NE 14 10.00 Fair CLR 55.8 40.5 57% 30.07 0.0
06 10:10 NE 12 G 22 10.00 Fair CLR 53.2 40.1 61% 30.06 0.0
06 09:50 E 16 10.00 Fair CLR 53.4 40.3 61% 30.05 0.0
06 09:30 NE 15 G 25 10.00 Fair CLR 51.6 39.2 63% 30.04 0.0
06 09:10 NE 13 G 18 10.00 Partly Cloudy SCT024 SCT028 50.7 41.2 70% 30.04 0.0
06 08:50 NE 14 G 21 10.00 Partly Cloudy SCT022 50.2 40.6 70% 30.04 0.0
06 08:30 NE 10 G 17 7.00 Fair CLR 49.1 41.7 76% 45 30.04 0.0
06 08:10 N 9 G 17 10.00 Fair CLR 48.4 41.9 78% 45 30.04 0.0
06 07:55 NE 12 10.00 Fair CLR 47.8 41.9 80% 43 30.03 0.0
06 07:35 NE 10 G 23 10.00 Fair CLR 47.5 41.5 80% 43 30.03 0.0
06 07:15 N 14 10.00 Partly Cloudy SCT044 47.3 41 79% 42 30.02 0.0
06 06:50 N 10 10.00 Partly Cloudy SCT044 47.1 40.3 49.1 47.1 77% 43 30.01 0.0
06 06:30 N 13 G 18 10.00 Partly Cloudy SCT046 47.1 39.9 76% 42 30 0.0
06 06:10 N 10 10.00 Overcast OVC046 47.5 39.9 75% 43 30 0.0
06 05:50 N 10 10.00 Overcast OVC046 47.5 39.9 75% 43 30 0.0
06 05:30 N 9 10.00 Overcast OVC046 47.7 39.9 75% 44 30 0.0
06 05:10 N 9 10.00 Overcast OVC046 48 40.1 74% 44 30 0.0
06 04:50 N 9 10.00 Overcast OVC046 48.2 40.1 74% 45 29.99 0.0
06 04:30 N 9 10.00 Overcast OVC046 48.4 39.7 72% 45 29.98 0.0
06 04:10 N 10 10.00 Overcast OVC044 48.6 39.7 72% 45 29.97 0.0
06 03:50 N 10 10.00 Overcast OVC042 48.4 39.6 72% 44 29.97 0.0
06 03:30 N 10 10.00 Overcast OVC040 48.4 40.3 74% 44 29.95 0.0
06 03:10 N 8 10.00 Overcast OVC040 48.4 40.1 73% 45 29.93 0.0
06 02:50 N 9 10.00 Overcast OVC038 48.6 39.6 71% 45 29.92 0.0
06 02:10 N 9 10.00 Overcast OVC038 48.6 39.4 71% 45 29.92 0.0
06 01:50 N 9 10.00 Overcast OVC036 48.6 39.4 71% 45 29.93 0.0
06 01:30 N 7 10.00 Overcast OVC036 48.7 39.4 70% 46 29.93 0.0
06 01:10 N 9 10.00 Overcast OVC034 48.7 39.4 70% 45 29.92 0.0
06 00:55 N 9 10.00 Overcast OVC034 49.1 39.4 51.3 48.9 69% 46 29.92 0.0
06 00:35 NE 10 G 18 10.00 Overcast OVC034 49.5 37.6 64% 46 29.92 0.0
06 00:10 NE 12 10.00 Overcast OVC034 49.5 37.9 65% 45 29.92 0.0
05 23:30 NE 10 10.00 Overcast OVC032 49.6 37.6 63% 46 29.92 0.0
05 23:10 NE 13 G 17 10.00 Overcast OVC030 49.5 39.2 68% 45 29.93 0.0
05 22:50 NE 15 G 20 10.00 Overcast OVC028 49.6 40.5 71% 45 29.92 0.0
05 22:30 N 14 G 21 10.00 Overcast BKN024 OVC031 49.5 41.2 73% 45 29.91 0.0
05 22:10 N 14 G 20 10.00 Overcast OVC022 49.3 41.5 75% 45 29.91 0.0
05 21:50 N 9 G 23 10.00 Overcast OVC020 49.3 41.7 75% 46 29.91 0.0
05 21:30 N 9 10.00 Overcast OVC020 49.3 42.6 78% 46 29.9 0.0
05 21:10 N 10 G 18 10.00 Overcast OVC020 49.3 42.8 78% 45 29.89 0.0
05 20:55 N 12 10.00 Overcast OVC020 49.5 42.6 77% 45 29.88 0.0
05 20:35 N 10 10.00 Overcast OVC020 49.5 42.4 77% 46 29.88 0.0
05 20:15 N 10 10.00 Overcast OVC022 50 42.3 75% 46 29.86 0.0
05 19:50 N 14 G 22 10.00 Overcast OVC022 50.4 42.1 73% 29.84 0.0
05 19:30 N 14 G 20 10.00 Overcast OVC022 50.7 42.3 73% 29.84 0.0
05 19:10 N 13 G 21 10.00 Overcast OVC022 51.1 42.8 73% 29.83 0.0
05 18:50 NE 14 G 20 10.00 Overcast OVC024 51.3 42.6 55.8 51.3 72% 29.84 0.0
05 18:30 N 10 G 25 10.00 Overcast OVC024 51.8 42.3 70% 29.83 0.0
05 18:10 NE 12 G 21 10.00 Overcast OVC024 52.3 43.3 72% 29.82 0.0
05 17:50 NE 14 G 21 7.00 Overcast OVC022 52.5 43.7 72% 29.82 0.0
05 17:30 N 15 G 21 10.00 Overcast OVC022 52.7 43.9 72% 29.81 0.0
05 17:10 N 14 G 18 10.00 Overcast OVC022 53.1 44.2 72% 29.8 0.0
05 16:35 N 10 10.00 Overcast OVC022 53.8 44.6 71% 29.79 0.0
05 16:15 N 13 G 25 10.00 Overcast OVC020 54.3 44.8 70% 29.77 0.0
05 15:55 N 18 G 26 10.00 Overcast OVC020 53.8 45 72% 29.79 0.0
05 15:30 NE 16 G 21 10.00 Overcast OVC020 54.7 45.9 72% 29.78 0.0
05 15:10 NE 16 G 25 10.00 Overcast OVC018 55.6 46.8 72% 29.77 0.0
05 14:50 N 15 G 21 7.00 Overcast OVC016 54.9 47.3 76% 29.78 0.0
05 14:30 N 13 G 26 10.00 Overcast OVC014 54.7 48.2 79% 29.77 0.0
05 14:10 N 13 10.00 Overcast OVC014 55.4 49.1 79% 29.76 0.0
05 13:50 N 17 G 21 10.00 Overcast OVC014 55.6 49.5 80% 29.76 0.0
05 13:30 N 17 G 24 10.00 Overcast OVC012 55.6 49.5 80% 29.75 0.0
05 13:10 N 16 G 24 10.00 Overcast OVC012 55.4 49.8 82% 29.74 0.0
05 12:30 N 14 G 23 10.00 Overcast OVC012 55.6 50.7 84% 29.73 0.0
05 12:15 N 18 G 31 10.00 Overcast OVC012 55.6 50.7 84% 29.72 0.0
05 11:55 N 15 G 26 10.00 Overcast OVC012 57 51.6 82% 29.71 0.0
05 11:35 NE 20 G 29 10.00 Overcast OVC012 59 53.4 82% 29.68 0.0
05 11:10 N 18 G 29 10.00 Overcast OVC012 60.6 55 82% 29.67 0.0
05 10:50 N 14 G 23 10.00 Overcast OVC014 64.6 59.4 83% 29.66 0.0
05 10:30 N 14 G 18 10.00 Overcast BKN014 BKN024 OVC038 69.1 63.1 81% 29.64 0.0
05 10:10 E 7 10.00 Overcast OVC028 69.6 63.9 82% 29.63 0.0
05 09:50 E 12 10.00 Mostly Cloudy BKN030 70 63.9 81% 29.62 0.0
05 09:30 E 13 10.00 Partly Cloudy SCT030 69.4 63.5 82% 29.61 0.0
05 09:10 E 13 G 17 7.00 Mostly Cloudy BKN030 69.3 63.3 81% 29.61 0.0
05 08:50 E 13 10.00 Overcast OVC030 68.2 62.8 83% 29.61 0.0
05 08:30 E 13 10.00 Overcast OVC030 67.5 62.6 85% 29.61 0.0
05 08:10 E 10 10.00 Overcast OVC030 66.9 62.6 86% 29.61 0.0
05 07:55 E 10 10.00 Overcast OVC030 66.6 62.6 87% 29.6 0.0
05 07:35 E 10 10.00 Overcast OVC028 65.8 62.4 89% 29.61 0.0
05 07:15 E 8 10.00 Partly Cloudy SCT030 64.9 62.1 90% 29.6 0.0
05 06:50 E 8 10.00 Fair CLR 64.2 61.5 70.5 64.2 91% 29.59 0.0
05 06:30 NE 7 10.00 Fair CLR 64.2 61.3 90% 29.58 0.0
05 06:10 E 8 10.00 Fair CLR 64.4 61.5 90% 29.57 0.0
05 05:50 NE 8 10.00 Fair CLR 64.8 61.7 90% 29.56 0.0
05 05:30 E 7 10.00 Fair CLR 65.1 62.1 90% 29.54 0.0
05 05:10 E 7 10.00 Fair CLR 65.7 61.7 87% 29.53 0.0
05 04:50 SE 8 10.00 Fair CLR 66.2 62.1 87% 29.53 0.0
05 04:30 E 8 10.00 Fair CLR 66 61.9 87% 29.53 0.0
05 04:10 E 6 10.00 Fair CLR 67.1 62.1 84% 29.53 0.0
05 03:50 SE 7 10.00 Fair CLR 68.2 62.1 81% 29.54 0.0
05 03:30 SE 6 10.00 Fair CLR 68.2 62.1 81% 29.55 0.0
05 03:10 E 7 10.00 Fair CLR 69.1 62.1 78% 29.55 0.0
05 02:50 S 10 10.00 Fair CLR 70.2 62.2 76% 29.54 0.0
05 02:30 S 16 10.00 Fair CLR 70.2 62.2 76% 29.54 0.0
05 02:10 S 16 10.00 Fair CLR 70.2 62.1 76% 29.55 0.0
05 01:30 S 14 10.00 Fair CLR 70.2 61.9 75% 29.56 0.0
05 01:10 S 15 G 23 10.00 Fair CLR 70.5 61.7 74% 29.57 0.0
05 00:55 S 14 G 20 10.00 Fair CLR 70.3 61.5 76.6 70.3 74% 29.58 0.0
05 00:35 S 16 G 25 10.00 Fair CLR 70.9 61.7 73% 29.58 0.0
05 00:10 S 16 G 24 10.00 Fair CLR 71.1 61.5 72% 29.58 0.0
04 23:50 S 18 10.00 Fair CLR 71.4 61.5 71% 29.59 0.0
04 23:30 S 15 G 26 10.00 Fair CLR 72 61.3 69% 29.6 0.0
04 23:10 S 16 10.00 Fair CLR 72 61.3 69% 29.6 0.0
04 22:50 S 15 10.00 Fair CLR 72.5 61.3 68% 29.6 0.0
04 22:30 S 18 G 25 10.00 Fair CLR 73 61.3 67% 29.61 0.0
04 22:10 S 16 G 26 10.00 Fair CLR 73.2 61.2 66% 29.61 0.0
04 21:50 S 17 G 30 10.00 Fair CLR 73.6 61.2 65% 29.61 0.0
04 21:30 S 14 G 22 10.00 Fair CLR 73.6 61 65% 29.61 0.0
04 21:10 S 15 G 20 10.00 Fair CLR 73.4 61 65% 29.6 0.0
04 20:50 S 15 G 22 10.00 Fair CLR 74.1 61 64% 29.6 0.0
04 20:35 S 14 10.00 Fair CLR 74.5 60.8 63% 29.61 0.0
04 20:15 S 16 G 20 10.00 Fair CLR 74.8 60.8 62% 29.61 0.0
04 19:50 S 15 G 21 10.00 Fair CLR 75.4 61.2 61% 78 29.6 0.0
04 19:30 S 13 G 20 10.00 Fair CLR 75.7 61.2 61% 78 29.61 0.0
04 19:10 S 12 10.00 Fair CLR 76.1 61 60% 78 29.6 0.0
04 18:50 S 13 G 20 10.00 Fair CLR 76.8 60.8 81.3 76.8 58% 79 29.61 0.0
04 18:30 S 12 G 20 10.00 Fair CLR 77 60.8 57% 79 29.63 0.0
04 18:10 S 14 10.00 Fair CLR 77.7 61 56% 79 29.63 0.0
04 17:50 S 13 G 18 10.00 Fair CLR 78.1 60.8 55% 80 29.64 0.0
04 17:30 S 17 G 25 10.00 Partly Cloudy SCT045 79 60.3 53% 80 29.64 0.0
04 17:10 S 15 G 23 10.00 Fair CLR 79.5 60.8 53% 81 29.64 0.0
04 16:50 S 17 G 25 10.00 Fair CLR 79.3 60.1 52% 80 29.64 0.0
04 16:30 S 17 G 25 10.00 Partly Cloudy SCT047 80.1 60.4 51% 81 29.64 0.0
04 16:15 S 20 G 26 10.00 Fair CLR 78.8 59.5 52% 80 29.65 0.0
04 15:55 S 20 G 28 10.00 Fair CLR 80.8 60.1 49% 81 29.65 0.0
04 15:30 S 21 G 30 10.00 Fair and Breezy CLR 80.8 59.2 48% 81 29.66 0.0
04 15:10 S 22 G 31 10.00 Fair and Breezy CLR 80.4 59.4 49% 81 29.68 0.0
04 14:50 S 20 G 28 10.00 Fair CLR 79.9 59.4 50% 81 29.69 0.0
04 14:30 S 17 G 25 10.00 Fair CLR 79.9 59.2 49% 81 29.69 0.0
04 14:10 S 20 G 28 10.00 Fair CLR 78.4 57.6 49% 79 29.7 0.0
04 13:50 S 17 G 30 10.00 Fair CLR 79.7 58.6 49% 80 29.71 0.0
04 13:30 S 17 10.00 Fair CLR 79.2 58.1 49% 80 29.71 0.0
04 13:10 S 16 G 30 10.00 Fair CLR 79 57.6 48% 80 29.73 0.0
04 12:50 S 22 G 30 10.00 Fair and Breezy CLR 78.6 56.8 79 61.7 47% 80 29.73 0.0
04 12:30 S 21 G 28 10.00 Fair and Breezy CLR 77.7 56.1 47% 79 29.74 0.0
04 12:15 S 20 G 31 10.00 Fair CLR 77.5 55.8 47% 79 29.74 0.0
04 11:55 S 17 G 29 10.00 Fair CLR 77.4 55.6 47% 79 29.75 0.0
04 11:35 S 17 G 26 10.00 Fair CLR 76.8 55.2 47% 78 29.76 0.0
04 11:10 S 21 G 28 10.00 Fair and Breezy CLR 75.9 54.5 48% 78 29.76 0.0
04 10:50 S 22 G 25 10.00 Fair and Breezy CLR 75.4 54.1 48% 78 29.76 0.0
04 10:30 S 22 G 26 10.00 Fair and Breezy CLR 74.1 53.2 48% 29.76 0.0
04 10:10 S 22 10.00 Fair and Breezy CLR 72.9 52.7 49% 29.77 0.0
04 09:50 S 22 G 26 10.00 Fair and Breezy CLR 71.8 51.4 49% 29.77 0.0
04 09:30 S 20 G 26 10.00 Fair CLR 70.9 50.9 49% 29.78 0.0
04 09:10 S 18 G 28 10.00 Fair CLR 70.2 50.7 50% 29.79 0.0
04 08:50 S 20 G 24 10.00 Fair CLR 68.2 49.8 52% 29.79 0.0
04 08:30 S 17 G 24 10.00 Fair CLR 66.6 49.3 54% 29.79 0.0
04 08:10 S 18 10.00 Fair CLR 65.3 48.9 56% 29.79 0.0
04 07:55 S 16 10.00 Fair CLR 64.2 48.9 58% 29.8 0.0
04 07:35 S 16 G 24 10.00 Fair CLR 63.5 48.4 58% 29.79 0.0
04 07:15 S 16 10.00 Partly Cloudy SCT110 62.8 48 59% 29.8 0.0
04 06:50 S 15 G 23 10.00 Partly Cloudy SCT100 61.7 47.5 65.5 60.1 60% 29.8 0.0
04 06:10 S 14 10.00 Fair CLR 60.4 46.6 60% 29.79 0.0
04 05:50 S 16 10.00 Fair CLR 60.8 46.4 59% 29.8 0.0
04 05:30 S 16 10.00 Fair CLR 61 46.4 59% 29.8 0.0
04 05:10 S 13 10.00 Fair CLR 61.2 46.4 59% 29.8 0.0
04 04:50 S 14 10.00 Fair CLR 61.5 46.2 57% 29.81 0.0
04 04:30 S 14 10.00 Fair CLR 61.9 46.2 57% 29.81 0.0
04 04:10 S 16 10.00 Fair CLR 62.1 46.2 56% 29.82 0.0
04 03:50 S 15 10.00 Fair CLR 62.2 46.2 56% 29.82 0.0
04 03:30 S 16 10.00 Fair CLR 62.4 46 55% 29.83 0.0
04 03:10 S 14 10.00 Fair CLR 62.8 45.7 54% 29.83 0.0
04 02:50 S 15 10.00 Fair CLR 63 45.5 53% 29.84 0.0
04 02:30 S 14 10.00 Fair CLR 63.1 45.1 52% 29.84 0.0
04 02:10 S 14 G 18 10.00 Fair CLR 63 44.8 52% 29.85 0.0
04 01:50 S 14 10.00 Fair CLR 63.5 44.6 50% 29.86 0.0
04 01:30 S 16 G 23 10.00 Fair CLR 64.6 44.2 48% 29.87 0.0
04 01:15 S 15 10.00 Fair CLR 64.4 44.2 48% 29.87 0.0
04 00:55 S 17 G 21 10.00 Fair CLR 65.5 44.1 79 65.1 46% 29.88 0.0
04 00:35 S 14 10.00 Fair CLR 65.7 44.2 46% 29.88 0.0
04 00:10 S 14 10.00 Fair CLR 66.2 44.1 45% 29.88 0.0
03 23:50 S 15 10.00 Fair CLR 66.9 44.1 44% 29.89 0.0
03 23:30 S 15 10.00 Fair CLR 67.8 43.9 42% 29.88 0.0
03 23:10 S 15 10.00 Fair CLR 67.8 44.1 42% 29.89 0.0
03 22:50 S 17 10.00 Fair CLR 67.1 44.8 45% 29.89 0.0
03 22:30 S 13 10.00 Fair CLR 66.6 45 46% 29.9 0.0
03 22:10 S 9 10.00 Fair CLR 67.1 44.2 44% 29.9 0.0
03 21:50 S 10 10.00 Fair CLR 68 43.9 42% 29.9 0.0
03 21:30 S 10 10.00 Fair CLR 68.7 43.5 40% 29.89 0.0
03 21:10 S 12 10.00 Fair CLR 69.8 43.3 39% 29.89 0.0
03 20:55 S 12 10.00 Fair CLR 70.3 43.3 38% 29.88 0.0
03 20:35 S 10 10.00 Fair CLR 70.5 44.2 39% 29.88 0.0
03 20:15 S 10 10.00 Fair CLR 72.3 44.2 37% 29.88 0.0
03 19:50 S 14 G 17 10.00 Fair CLR 74.1 44.2 34% 29.88 0.0
03 19:30 S 13 10.00 Fair CLR 76.5 44.6 32% 78 29.88 0.0
03 19:10 S 17 G 21 10.00 Fair CLR 78.3 43.5 29% 78 29.89 0.0
03 18:50 SW 18 10.00 Fair CLR 79.5 41.5 85.5 79.5 26% 79 29.9 0.0
03 18:30 SW 16 G 24 10.00 Fair CLR 80.6 42.8 26% 79 29.9 0.0
03 18:10 S 21 G 28 10.00 Fair and Breezy CLR 81 42.8 26% 80 29.9 0.0
03 17:50 SW 21 10.00 Fair and Breezy CLR 81.5 41.7 24% 80 29.9 0.0
03 17:30 SW 17 G 28 10.00 Fair CLR 82.4 42.1 24% 80 29.9 0.0
03 17:10 SW 17 10.00 Fair CLR 82.8 43.2 25% 81 29.9 0.0
03 16:50 SW 18 G 26 10.00 Fair CLR 83.3 42.3 23% 81 29.91 0.0
03 16:35 SW 17 G 26 10.00 Fair CLR 84.2 43.3 24% 82 29.91 0.0
03 16:15 S 17 G 28 10.00 Fair CLR 83.8 42.1 23% 81 29.92 0.0
03 15:55 SW 16 G 28 10.00 Fair CLR 84.2 43.7 24% 82 29.93 0.0
03 15:30 SW 18 G 23 10.00 Fair CLR 84.6 41.4 22% 82 29.94 0.0
03 15:10 SW 16 G 25 10.00 Fair CLR 84.4 40.1 21% 82 29.95 0.0
03 14:50 S 17 10.00 Fair CLR 84.2 41 22% 82 29.96 0.0
03 14:30 SW 15 G 28 10.00 Fair CLR 84.4 40.1 21% 82 29.97 0.0
03 14:10 SW 15 G 25 10.00 Fair CLR 84.4 43 23% 82 29.98 0.0
03 13:50 SW 20 10.00 Fair CLR 83.5 45.7 27% 81 29.98 0.0
03 13:30 SW 17 10.00 Fair CLR 83.5 47.3 28% 81 29.99 0.0
03 13:10 SW 14 G 21 10.00 Fair CLR 82.2 48.2 31% 81 30 0.0
03 12:50 SW 14 10.00 Fair CLR 81 48.2 81.5 52.2 32% 80 30.01 0.0
Date Time (cdt) Wind (mph) Vis. (mi.) Weather Sky Cond. Air Dwpt Max. Min. Relative Humidity Wind Chill (°F) Heat Index (°F) altimeter (in) sea level (mb) 1 hr 3 hr 6 hr
6 hour
Temperature (ºF) Pressure Precipitation (in)